Racecast

Christian Hamilton

5 Star Eagles (VA) · 3 · Compare head to head

Athlete rating
Races 59
Seasons 3 2024 — 2026
Speed rating — all races

Track & Field

TF speed rating

2026 TF

5 Star Eagles (VA) · Grade 3

Date Meet Event Result Place Rating Difficulty PR/SR Flags
2026-05-30 Va Beach Flames Invite lj 12' 2.25" -0.023
2026-05-30 Va Beach Flames Invite 200m 28.88 2nd · 1st on team -0.023 ★PR SR
2026-05-30 Va Beach Flames Invite 400m 1:10.5 3rd · 1st on team -0.023
2026-05-24 HR Hurricanes CAT 5 Invite lj 11' 10" -0.035
2026-05-24 HR Hurricanes CAT 5 Invite 100m 14.49 9th · 2nd on team -0.035 PR SR
2026-05-24 HR Hurricanes CAT 5 Invite 400m 1:10.41 3rd · 1st on team -0.035 ★PR SR
2026-05-24 HR Hurricanes CAT 5 Invite 100m 14.21 7th · 1st on team -0.035 ★PR SR
2026-05-03 Queen Harrison Track Classic - -Youth Section lj DNS -0.033
2026-02-28 BWSP Queens and Kings Championships lj 12' 1" -0.024
2026-02-28 BWSP Queens and Kings Championships 55m 8.53 12th · 1st on team -0.024
2026-02-28 BWSP Queens and Kings Championships 200m 30.24 5th · 1st on team -0.024 PR SR
2026-02-22 3rd Annual HRH Winter Storm Classic lj DNS -0.024
2026-02-22 3rd Annual HRH Winter Storm Classic 55m 8.48 18th · 1st on team -0.024
2026-01-31 BWSP Queens and Kings - Meet 3 lj 11' 9.50" -0.024
2026-01-31 BWSP Queens and Kings - Meet 3 200m 31.31 8th · 1st on team -0.024
2026-01-31 BWSP Queens and Kings - Meet 3 55m 8.43 15th · 1st on team -0.024
2026-01-17 BWSP Queens and Kings - Meet 2 lj 11' 10" -0.024
2026-01-17 BWSP Queens and Kings - Meet 2 55m 8.46 15th · 1st on team -0.024
2026-01-17 BWSP Queens and Kings - Meet 2 200m 30.73 6th · 1st on team -0.024 PR SR
2026-01-03 BWSP Queens and Kings - Meet 1 lj 12' 4" -0.024
2026-01-03 BWSP Queens and Kings - Meet 1 200m 31.01 4th · 1st on team -0.024 PR SR
2026-01-03 BWSP Queens and Kings - Meet 1 55m 8.6 13th · 1st on team -0.024
2025-12-20 2025 Howard White Holiday Track Classic lj 12-09.50 -0.024
2025-12-20 2025 Howard White Holiday Track Classic 55m 8.34 10th · 1st on team -0.024 ★PR SR
2025-12-20 2025 Howard White Holiday Track Classic 200m 31.14 6th · 1st on team -0.024 PR SR
2025-12-20 2025 Howard White Holiday Track Classic 55m 8.37 12th · 2nd on team -0.024
2025-12-06 Coach Miami Presents the Virginia Beast Invitational lj 3.32m -0.036
2025-12-06 Coach Miami Presents the Virginia Beast Invitational 200m 31.49 2nd · 1st on team -0.036 PR SR
2025-12-06 Coach Miami Presents the Virginia Beast Invitational 60m 9.27 2nd · 1st on team -0.036 ★PR SR
2025-12-06 Coach Miami Presents the Virginia Beast Invitational 60m 9.68 12th · 2nd on team -0.036

2025 TF

5 Star Eagles (VA) · Grade 8

Date Meet Event Result Place Rating Difficulty PR/SR Flags
2025-05-25 HR Hurricanes CAT 5 Invite lj 11' 4" -0.035
2025-05-25 HR Hurricanes CAT 5 Invite 100m 15.18 4th · 1st on team -0.035 PR SR
2025-05-25 HR Hurricanes CAT 5 Invite 200m 32.82 3rd · 1st on team -0.035 PR SR
2025-05-25 HR Hurricanes CAT 5 Invite 100m 16.26 14th · 2nd on team -0.035

2024 TF

5 Star Track and Field Program (VA) · Grade 6

Date Meet Event Result Place Rating Difficulty PR/SR Flags
2024-07-13 Cannonball Cooper Invite lj 6-07.00 -0.024
2024-07-13 Cannonball Cooper Invite 50m 7.68 4th · 1st on team -0.024 ★PR SR
2024-07-13 Cannonball Cooper Invite 100m 16.74 8th · 1st on team -0.024
2024-06-29 AAU Region 05 National Qualifier 100m 16.55 27th · 1st on team -0.034 PR SR
2024-05-05 2024 Technique Relays lj DNS -0.015
2024-03-03 AAU Indoor National Champonships lj DNS -0.036
2024-02-18 HRH Winter Storm Classic 100m 16.74 2nd · 1st on team -0.024 PR SR
2024-02-18 HRH Winter Storm Classic 55m 9.94 2nd · 2nd on team -0.024
2024-02-18 HRH Winter Storm Classic 55m 9.83 1st · 1st on team -0.024
2024-02-18 HRH Winter Storm Classic 200m 37.52 1st · 1st on team -0.024
2024-02-03 BWSP Queens and Kings 55m 10.26 2nd · 2nd on team -0.014
2024-02-03 BWSP Queens and Kings 200m 39 1st · 1st on team -0.014
2024-02-03 BWSP Queens and Kings 55m 10.11 1st · 1st on team -0.014
2024-02-03 BWSP Queens and Kings 100m 18.85 1st · 1st on team -0.014
2024-01-20 BWSP Queens and Kings 55m 9.5 1st · 1st on team -0.014 PR SR
2024-01-20 BWSP Queens and Kings 100m 17.81 1st · 1st on team -0.014
2024-01-20 BWSP Queens and Kings 200m 37.58 1st · 1st on team -0.014
2024-01-20 BWSP Queens and Kings 55m 10.08 2nd · 2nd on team -0.014
2024-01-06 BWSP Queens and Kings 55m 9.95 1st · 1st on team -0.024 PR SR
2024-01-06 BWSP Queens and Kings 55m 10.32 2nd · 2nd on team -0.024
2024-01-06 BWSP Queens and Kings 100m 18.25 1st · 1st on team -0.024
2024-01-06 BWSP Queens and Kings 200m 37.47 1st · 1st on team -0.024 PR SR
2023-12-17 2023 Grant Holloway AAU Invitational 60m 10.23 3rd · 1st on team -0.036 PR SR
2023-12-17 2023 Grant Holloway AAU Invitational 100m 17.2 12th · 1st on team -0.036 PR SR
2023-12-17 2023 Grant Holloway AAU Invitational 60m 10.74 7th · 2nd on team -0.036